createdAt,value
2022-08-20T00:01:24.738Z,13.80
2022-08-20T00:03:04.468Z,14.90
2022-08-20T00:03:28.464Z,13.90
2022-08-20T00:05:09.505Z,14.00
2022-08-20T00:05:30.989Z,15.70
2022-08-20T00:07:28.374Z,16.40
2022-08-20T00:09:03.141Z,17.30
2022-08-20T00:10:11.210Z,17.70
2022-08-20T00:10:33.530Z,16.10
2022-08-20T00:12:42.336Z,16.00
2022-08-20T00:14:23.062Z,16.50
2022-08-20T00:14:39.466Z,17.00
2022-08-20T00:16:24.719Z,16.80
2022-08-20T00:16:40.715Z,16.70
2022-08-20T00:18:51.734Z,16.50
2022-08-20T00:20:36.872Z,17.30
2022-08-20T00:20:50.194Z,17.30
2022-08-20T00:22:32.903Z,17.50
2022-08-20T00:22:49.120Z,16.10
2022-08-20T00:24:53.084Z,15.00
2022-08-20T00:26:51.961Z,15.50
2022-08-20T00:26:54.418Z,15.00
2022-08-20T00:28:33.606Z,16.10
2022-08-20T00:28:53.474Z,16.80
2022-08-20T00:30:56.818Z,15.10
2022-08-20T00:32:41.224Z,16.40
2022-08-20T00:32:57.533Z,15.20
2022-08-20T00:34:39.390Z,14.60
2022-08-20T00:35:01.377Z,15.10
2022-08-20T00:37:04.445Z,15.70
2022-08-20T00:38:48.410Z,14.90
2022-08-20T00:39:04.449Z,14.40
2022-08-20T00:40:32.206Z,14.10
2022-08-20T00:41:05.469Z,15.30
2022-08-20T00:43:12.051Z,13.80
2022-08-20T00:44:47.068Z,15.60
2022-08-20T00:45:40.768Z,16.00
2022-08-20T00:46:12.084Z,16.70
2022-08-20T00:48:22.859Z,19.30
2022-08-20T00:49:56.699Z,17.60
2022-08-20T00:51:05.090Z,18.20
2022-08-20T00:51:21.361Z,17.40
2022-08-20T00:53:06.013Z,17.90
2022-08-20T00:53:34.505Z,17.20
2022-08-20T00:54:19.838Z,16.90
2022-08-20T00:55:56.201Z,17.50
2022-08-20T00:57:59.841Z,15.10
2022-08-20T00:58:28.065Z,16.40
2022-08-20T00:59:27.587Z,17.20
2022-08-20T01:00:28.062Z,17.60
2022-08-20T01:01:27.113Z,18.10
2022-08-20T01:02:27.030Z,16.70
2022-08-20T01:03:27.038Z,17.20
2022-08-20T01:04:33.310Z,15.50
2022-08-20T01:05:29.646Z,17.40
2022-08-20T01:06:27.034Z,15.50
2022-08-20T01:07:27.021Z,14.90
2022-08-20T01:08:27.911Z,15.20
2022-08-20T01:09:58.005Z,14.90
2022-08-20T01:10:27.947Z,14.80
2022-08-20T01:11:26.978Z,14.00
2022-08-20T01:12:26.950Z,14.40
2022-08-20T01:13:27.265Z,14.90
2022-08-20T01:14:33.242Z,14.30
2022-08-20T01:15:31.247Z,14.50
2022-08-20T01:16:28.155Z,14.40
2022-08-20T01:17:26.822Z,14.90
2022-08-20T01:18:26.850Z,16.30
2022-08-20T01:19:33.971Z,16.20
2022-08-20T01:20:27.148Z,15.90
2022-08-20T01:21:26.910Z,16.30
2022-08-20T01:22:26.771Z,16.50
2022-08-20T01:23:26.833Z,16.50
2022-08-20T01:24:33.137Z,18.00
2022-08-20T01:25:26.820Z,17.40
2022-08-20T01:26:26.753Z,19.00
2022-08-20T01:27:26.710Z,19.20
2022-08-20T01:28:26.748Z,17.90
2022-08-20T01:29:26.721Z,19.70
2022-08-20T01:30:33.139Z,18.50
2022-08-20T01:31:26.671Z,20.40
2022-08-20T01:32:26.636Z,20.00
2022-08-20T01:33:26.621Z,19.50
2022-08-20T01:34:32.919Z,20.30
2022-08-20T01:35:26.588Z,20.40
2022-08-20T01:36:32.969Z,20.60
2022-08-20T01:37:28.645Z,19.80
2022-08-20T01:38:27.594Z,18.50
2022-08-20T01:39:26.579Z,20.30
2022-08-20T01:40:26.570Z,19.20
2022-08-20T01:41:28.527Z,19.20
2022-08-20T01:42:59.627Z,17.40
2022-08-20T01:43:55.007Z,19.80
2022-08-20T01:44:54.977Z,20.70
2022-08-20T01:45:54.987Z,19.10
2022-08-20T01:46:55.006Z,18.90
2022-08-20T01:48:01.284Z,17.20
2022-08-20T01:48:54.958Z,18.80
2022-08-20T01:49:54.916Z,19.80
2022-08-20T01:50:55.676Z,19.10
2022-08-20T01:51:55.885Z,18.60
2022-08-20T01:52:55.902Z,19.70
2022-08-20T01:54:01.178Z,18.80
2022-08-20T01:54:55.798Z,18.30
2022-08-20T01:55:54.845Z,19.70
2022-08-20T01:56:56.203Z,19.90
2022-08-20T01:57:55.016Z,19.90
2022-08-20T01:59:01.741Z,19.70
2022-08-20T01:59:56.015Z,19.10
2022-08-20T02:01:16.700Z,19.50
2022-08-20T02:01:54.847Z,18.60
2022-08-20T02:02:54.802Z,17.60
2022-08-20T02:03:54.738Z,19.10
2022-08-20T02:05:01.243Z,17.90
2022-08-20T02:05:54.715Z,17.50
2022-08-20T02:06:58.657Z,16.70
2022-08-20T02:07:54.824Z,17.00
2022-08-20T02:08:54.676Z,17.60
2022-08-20T02:09:54.689Z,16.50
2022-08-20T02:11:38.606Z,14.50
2022-08-20T02:12:38.618Z,16.00
2022-08-20T02:13:39.520Z,15.40
2022-08-20T02:14:38.579Z,16.90
2022-08-20T02:15:39.725Z,14.60
2022-08-20T02:16:44.860Z,13.40
2022-08-20T02:17:40.358Z,12.50
2022-08-20T02:18:38.526Z,11.20
2022-08-20T02:19:39.489Z,10.70
2022-08-20T02:20:38.501Z,10.70
2022-08-20T02:21:39.499Z,9.70
2022-08-20T02:22:50.042Z,9.80
2022-08-20T02:23:39.958Z,10.10
2022-08-20T02:24:38.447Z,9.30
2022-08-20T02:25:38.768Z,9.20
2022-08-20T02:26:38.419Z,9.50
2022-08-20T02:27:38.447Z,9.00
2022-08-20T02:28:45.837Z,9.40
2022-08-20T02:29:38.399Z,9.30
2022-08-20T02:30:38.410Z,9.10
2022-08-20T02:31:38.362Z,9.50
2022-08-20T02:32:39.351Z,9.60
2022-08-20T02:33:39.132Z,9.80
2022-08-20T02:34:44.641Z,8.70
2022-08-20T02:35:38.287Z,9.50
2022-08-20T02:36:38.299Z,10.20
2022-08-20T02:37:38.310Z,10.20
2022-08-20T02:38:38.270Z,9.60
2022-08-20T02:39:45.408Z,8.80
2022-08-20T02:40:38.290Z,11.00
2022-08-20T02:41:38.227Z,9.50
2022-08-20T02:42:38.235Z,10.50
2022-08-20T02:43:38.244Z,11.10
2022-08-20T02:44:44.519Z,11.20
2022-08-20T02:45:38.167Z,11.30
2022-08-20T02:46:38.192Z,11.50
2022-08-20T02:47:38.155Z,12.60
2022-08-20T02:48:38.193Z,11.90
2022-08-20T02:49:44.856Z,12.20
2022-08-20T02:51:50.732Z,12.00
2022-08-20T02:53:31.840Z,13.20
2022-08-20T02:53:52.542Z,13.00
2022-08-20T02:56:58.716Z,13.70
2022-08-20T02:58:29.217Z,14.00
2022-08-20T02:58:50.553Z,13.50
2022-08-20T03:00:37.911Z,14.70
2022-08-20T03:00:51.765Z,14.80
2022-08-20T03:02:59.387Z,14.40
2022-08-20T03:04:06.590Z,16.00
2022-08-20T03:05:40.840Z,16.40
2022-08-20T03:05:59.420Z,15.80
2022-08-20T03:08:08.253Z,18.00
2022-08-20T03:09:44.598Z,19.10
2022-08-20T03:10:07.037Z,17.40
2022-08-20T03:11:48.668Z,18.00
2022-08-20T03:12:05.603Z,19.10
2022-08-20T03:14:14.801Z,17.80
2022-08-20T03:15:24.647Z,19.30
2022-08-20T03:16:12.659Z,18.90
2022-08-20T03:17:12.442Z,19.50
2022-08-20T03:18:12.424Z,20.00
2022-08-20T03:19:19.153Z,21.80
2022-08-20T03:20:12.481Z,20.40
2022-08-20T03:21:14.646Z,20.30
2022-08-20T03:22:12.382Z,20.50
2022-08-20T03:23:12.357Z,21.30
2022-08-20T03:24:12.324Z,20.40
2022-08-20T03:25:18.572Z,21.10
2022-08-20T03:26:12.277Z,20.30
2022-08-20T03:27:12.294Z,22.10
2022-08-20T03:28:12.286Z,21.50
2022-08-20T03:29:12.321Z,21.90
2022-08-20T03:30:18.636Z,23.10
2022-08-20T03:31:12.664Z,22.80
2022-08-20T03:32:12.482Z,22.70
2022-08-20T03:33:12.226Z,24.10
2022-08-20T03:34:12.688Z,24.00
2022-08-20T03:35:12.181Z,24.20
2022-08-20T03:36:19.972Z,23.70
2022-08-20T03:37:12.179Z,23.60
2022-08-20T03:38:12.416Z,24.30
2022-08-20T03:39:12.158Z,25.40
2022-08-20T03:40:12.184Z,23.40
2022-08-20T03:41:18.477Z,26.00
2022-08-20T03:42:12.395Z,24.30
2022-08-20T03:43:12.227Z,24.50
2022-08-20T03:44:12.084Z,24.20
2022-08-20T03:45:12.087Z,23.40
2022-08-20T03:46:22.182Z,24.90
2022-08-20T03:47:20.006Z,24.50
2022-08-20T03:48:12.028Z,27.00
2022-08-20T03:49:12.366Z,25.70
2022-08-20T03:50:22.665Z,24.40
2022-08-20T03:51:13.439Z,26.40
2022-08-20T03:52:12.240Z,28.00
2022-08-20T03:53:18.513Z,26.50
2022-08-20T03:54:11.974Z,25.40
2022-08-20T03:55:11.912Z,25.60
2022-08-20T03:56:12.831Z,24.80
2022-08-20T03:57:34.162Z,24.90
2022-08-20T03:58:11.941Z,25.70
2022-08-20T03:59:18.251Z,26.50
2022-08-20T04:00:12.609Z,24.70
2022-08-20T04:01:37.155Z,22.90
2022-08-20T04:02:12.887Z,24.70
2022-08-20T04:03:11.813Z,24.90
2022-08-20T04:04:12.908Z,25.50
2022-08-20T04:05:18.835Z,26.40
2022-08-20T04:06:12.138Z,26.10
2022-08-20T04:07:11.744Z,27.70
2022-08-20T04:08:11.786Z,25.60
2022-08-20T04:09:12.281Z,25.50
2022-08-20T04:10:18.060Z,25.70
2022-08-20T04:11:12.372Z,24.70
2022-08-20T04:12:11.703Z,26.60
2022-08-20T04:13:11.700Z,26.90
2022-08-20T04:14:11.693Z,25.70
2022-08-20T04:15:12.945Z,25.90
2022-08-20T04:16:17.988Z,24.40
2022-08-20T04:17:11.650Z,24.50
2022-08-20T04:18:12.588Z,24.50
2022-08-20T04:19:11.590Z,26.30
2022-08-20T04:20:11.639Z,25.40
2022-08-20T04:21:58.442Z,22.20
2022-08-20T04:22:59.724Z,23.50
2022-08-20T04:23:58.414Z,25.70
2022-08-20T04:24:58.419Z,24.20
2022-08-20T04:25:58.376Z,26.70
2022-08-20T04:27:08.859Z,26.10
2022-08-20T04:27:58.576Z,26.30
2022-08-20T04:28:58.360Z,25.70
2022-08-20T04:29:58.383Z,26.20
2022-08-20T04:30:58.377Z,24.60
2022-08-20T04:32:05.872Z,22.60
2022-08-20T04:33:02.275Z,23.90
2022-08-20T04:33:58.988Z,24.00
2022-08-20T04:34:58.601Z,23.60
2022-08-20T04:35:58.285Z,22.20
2022-08-20T04:36:58.257Z,23.50
2022-08-20T04:38:04.555Z,22.80
2022-08-20T04:38:58.209Z,22.60
2022-08-20T04:39:58.352Z,22.80
2022-08-20T04:40:58.529Z,23.50
2022-08-20T04:41:58.260Z,22.30
2022-08-20T04:43:04.530Z,20.50
2022-08-20T04:43:58.347Z,22.20
2022-08-20T04:45:02.202Z,22.30
2022-08-20T04:45:58.816Z,21.60
2022-08-20T04:47:00.379Z,21.40
2022-08-20T04:47:58.210Z,22.10
2022-08-20T04:49:06.385Z,22.10
2022-08-20T04:49:58.089Z,21.70
2022-08-20T04:50:58.086Z,21.60
2022-08-20T04:51:58.096Z,22.00
2022-08-20T04:52:58.118Z,21.30
2022-08-20T04:53:58.054Z,19.90
2022-08-20T04:55:05.686Z,21.00
2022-08-20T04:55:58.021Z,20.90
2022-08-20T04:56:58.199Z,21.30
2022-08-20T04:58:01.063Z,21.90
2022-08-20T04:58:58.791Z,21.10
2022-08-20T05:00:04.296Z,21.10
2022-08-20T05:01:01.198Z,20.40
2022-08-20T05:01:57.971Z,22.40
2022-08-20T05:02:58.063Z,20.50
2022-08-20T05:03:57.926Z,19.70
2022-08-20T05:04:58.570Z,20.80
2022-08-20T05:06:05.235Z,20.70
2022-08-20T05:06:57.941Z,20.90
2022-08-20T05:08:00.978Z,20.30
2022-08-20T05:08:58.688Z,20.50
2022-08-20T05:09:58.275Z,20.50
2022-08-20T05:11:32.878Z,19.70
2022-08-20T05:11:58.808Z,20.70
2022-08-20T05:12:58.027Z,20.30
2022-08-20T05:13:57.786Z,20.50
2022-08-20T05:14:57.899Z,19.70
2022-08-20T05:15:58.859Z,19.20
2022-08-20T05:17:04.216Z,20.20
2022-08-20T05:17:57.848Z,20.50
2022-08-20T05:18:57.767Z,18.80
2022-08-20T05:19:57.735Z,20.30
2022-08-20T05:20:57.701Z,21.00
2022-08-20T05:21:57.791Z,20.90
2022-08-20T05:23:04.694Z,21.70
2022-08-20T05:23:57.653Z,18.90
2022-08-20T05:24:57.706Z,20.80
2022-08-20T05:25:57.611Z,20.40
2022-08-20T05:26:57.633Z,20.50
2022-08-20T05:27:57.669Z,18.50
2022-08-20T05:29:03.899Z,20.10
2022-08-20T05:29:57.560Z,19.90
2022-08-20T05:30:57.572Z,19.60
2022-08-20T05:31:57.561Z,18.60
2022-08-20T05:32:57.813Z,19.50
2022-08-20T05:33:57.539Z,19.00
2022-08-20T05:35:03.923Z,19.30
2022-08-20T05:35:57.534Z,19.00
2022-08-20T05:36:57.550Z,19.50
2022-08-20T05:37:57.614Z,20.20
2022-08-20T05:38:58.325Z,20.10
2022-08-20T05:40:05.918Z,18.20
2022-08-20T05:40:58.193Z,18.80
2022-08-20T05:41:57.493Z,19.50
2022-08-20T05:42:57.486Z,20.00
2022-08-20T05:43:59.212Z,18.70
2022-08-20T05:44:57.401Z,20.20
2022-08-20T05:46:03.766Z,19.40
2022-08-20T05:46:57.655Z,19.80
2022-08-20T05:48:39.567Z,20.30
2022-08-20T05:49:00.372Z,18.70
2022-08-20T05:50:44.766Z,19.40
2022-08-20T05:50:58.400Z,20.00
2022-08-20T05:53:08.816Z,16.40
2022-08-20T05:54:51.669Z,19.20
2022-08-20T05:55:11.649Z,18.30
2022-08-20T05:56:43.335Z,19.80
2022-08-20T05:58:19.259Z,18.00
2022-08-20T06:00:01.961Z,19.10
2022-08-20T06:00:28.928Z,18.80
2022-08-20T06:01:44.264Z,19.80
2022-08-20T06:02:58.934Z,19.40
2022-08-20T06:03:29.816Z,19.80
2022-08-20T06:05:00.717Z,19.90
2022-08-20T06:05:19.078Z,19.30
2022-08-20T06:06:45.978Z,19.30
2022-08-20T06:07:17.025Z,21.90
2022-08-20T06:09:30.966Z,19.10
2022-08-20T06:11:04.361Z,20.20
2022-08-20T06:11:27.924Z,20.40
2022-08-20T06:12:20.852Z,19.60
2022-08-20T06:13:20.468Z,20.70
2022-08-20T06:14:26.795Z,20.60
2022-08-20T06:15:20.459Z,17.70
2022-08-20T06:16:20.497Z,19.60
2022-08-20T06:17:22.318Z,19.70
2022-08-20T06:18:28.088Z,21.50
2022-08-20T06:19:25.138Z,20.90
2022-08-20T06:20:26.791Z,20.60
2022-08-20T06:21:20.399Z,21.40
2022-08-20T06:22:24.082Z,21.30
2022-08-20T06:23:21.864Z,21.50
2022-08-20T06:24:24.418Z,21.20
2022-08-20T06:25:26.679Z,20.40
2022-08-20T06:26:24.263Z,20.50
2022-08-20T06:27:21.802Z,20.60
2022-08-20T06:28:20.367Z,20.00
2022-08-20T06:29:20.991Z,21.10
2022-08-20T06:30:20.270Z,19.60
2022-08-20T06:31:26.541Z,22.20
2022-08-20T06:32:28.782Z,20.70
2022-08-20T06:33:22.451Z,19.60
2022-08-20T06:34:20.199Z,20.20
2022-08-20T06:35:20.301Z,19.10
2022-08-20T06:36:26.566Z,19.20
2022-08-20T06:37:20.150Z,18.80
2022-08-20T06:38:20.176Z,19.70
2022-08-20T06:39:20.143Z,20.10
2022-08-20T06:40:24.168Z,19.90
2022-08-20T06:41:20.209Z,19.20
2022-08-20T06:42:26.460Z,20.10
2022-08-20T06:43:21.005Z,19.80
2022-08-20T06:44:21.022Z,20.00
2022-08-20T06:46:02.770Z,19.30
2022-08-20T06:46:30.485Z,20.70
2022-08-20T06:47:57.164Z,20.80
2022-08-20T06:49:01.931Z,22.40
2022-08-20T06:49:20.304Z,19.40
2022-08-20T06:50:50.098Z,21.00
2022-08-20T06:52:02.849Z,21.50
2022-08-20T06:52:27.098Z,20.70
2022-08-20T06:53:34.800Z,21.70
2022-08-20T06:55:06.014Z,21.60
2022-08-20T06:55:26.741Z,21.30
2022-08-20T06:56:49.134Z,22.60
2022-08-20T06:58:05.921Z,22.40
2022-08-20T06:58:36.727Z,21.90
2022-08-20T07:00:32.476Z,19.80
2022-08-20T07:02:13.534Z,21.40
2022-08-20T07:02:35.577Z,21.00
2022-08-20T07:04:12.009Z,23.70
2022-08-20T07:04:29.651Z,23.00
2022-08-20T07:06:40.792Z,20.30
2022-08-20T07:08:02.938Z,21.70
2022-08-20T07:09:17.383Z,21.70
2022-08-20T07:09:38.139Z,22.40
2022-08-20T07:10:34.995Z,23.90
2022-08-20T07:11:34.966Z,21.60
2022-08-20T07:12:36.857Z,23.30
2022-08-20T07:13:34.911Z,24.20
2022-08-20T07:14:35.960Z,23.60
2022-08-20T07:15:34.865Z,22.50
2022-08-20T07:16:34.856Z,21.20
2022-08-20T07:17:42.243Z,21.20
2022-08-20T07:18:34.814Z,21.70
2022-08-20T07:19:35.159Z,21.30
2022-08-20T07:20:34.822Z,23.70
2022-08-20T07:21:34.805Z,21.10
2022-08-20T07:22:35.101Z,22.60
2022-08-20T07:23:41.455Z,23.60
2022-08-20T07:24:37.855Z,22.00
2022-08-20T07:25:36.230Z,20.80
2022-08-20T07:26:34.714Z,22.60
2022-08-20T07:27:35.528Z,22.60
2022-08-20T07:28:34.986Z,22.00
2022-08-20T07:29:42.197Z,21.80
2022-08-20T07:30:57.817Z,21.90
2022-08-20T07:31:35.033Z,21.30
2022-08-20T07:32:36.950Z,21.70
2022-08-20T07:33:34.656Z,21.50
2022-08-20T07:34:43.627Z,22.20
2022-08-20T07:35:35.011Z,21.10
2022-08-20T07:36:34.579Z,20.70
2022-08-20T07:37:34.649Z,21.30
2022-08-20T07:38:34.583Z,22.10
2022-08-20T07:39:40.912Z,22.50
2022-08-20T07:40:34.597Z,21.40
2022-08-20T07:41:34.558Z,21.10
2022-08-20T07:42:34.528Z,21.80
2022-08-20T07:43:34.486Z,22.70
2022-08-20T07:44:35.424Z,22.70
2022-08-20T07:45:40.987Z,23.40
2022-08-20T07:46:36.891Z,23.20
2022-08-20T07:47:34.661Z,22.50
2022-08-20T07:48:39.270Z,23.10
2022-08-20T07:49:41.127Z,23.50
2022-08-20T07:50:34.457Z,23.60
2022-08-20T07:51:40.750Z,23.40
2022-08-20T07:52:34.426Z,23.10
2022-08-20T07:53:35.815Z,23.10
2022-08-20T07:54:34.399Z,23.50
2022-08-20T07:55:34.340Z,23.60
2022-08-20T07:56:34.381Z,21.90
2022-08-20T07:57:56.689Z,22.40
2022-08-20T07:58:34.366Z,22.90
2022-08-20T07:59:34.293Z,23.30
2022-08-20T08:00:34.658Z,23.60
2022-08-20T08:01:34.351Z,24.20
2022-08-20T08:02:34.349Z,23.80
2022-08-20T08:03:50.099Z,24.30
2022-08-20T08:04:38.799Z,25.80
2022-08-20T08:05:34.281Z,24.90
2022-08-20T08:06:34.281Z,24.50
2022-08-20T08:07:34.231Z,26.00
2022-08-20T08:08:43.073Z,25.90
2022-08-20T08:09:35.068Z,24.90
2022-08-20T08:10:34.219Z,25.50
2022-08-20T08:11:35.515Z,26.60
2022-08-20T08:12:34.203Z,25.00
2022-08-20T08:13:34.171Z,25.40
2022-08-20T08:14:40.786Z,27.60
2022-08-20T08:15:38.389Z,28.70
2022-08-20T08:16:34.158Z,28.80
2022-08-20T08:17:34.104Z,30.60
2022-08-20T08:18:34.401Z,30.80
2022-08-20T08:19:34.075Z,28.60
2022-08-20T08:20:46.583Z,29.40
2022-08-20T08:21:35.571Z,30.00
2022-08-20T08:22:34.040Z,28.90
2022-08-20T08:23:34.322Z,30.30
2022-08-20T08:24:33.992Z,29.50
2022-08-20T08:25:34.012Z,31.20
2022-08-20T08:26:40.303Z,28.80
2022-08-20T08:27:33.961Z,31.00
2022-08-20T08:28:34.349Z,30.10
2022-08-20T08:29:33.982Z,30.80
2022-08-20T08:30:33.920Z,30.20
2022-08-20T08:31:40.488Z,29.60
2022-08-20T08:32:33.889Z,30.30
2022-08-20T08:33:34.112Z,29.50
2022-08-20T08:34:37.804Z,31.60
2022-08-20T08:35:33.875Z,30.30
2022-08-20T08:36:40.093Z,31.20
2022-08-20T08:37:33.879Z,31.10
2022-08-20T08:38:33.896Z,28.00
2022-08-20T08:39:35.116Z,30.90
2022-08-20T08:40:33.800Z,31.60
2022-08-20T08:41:33.762Z,30.80
2022-08-20T08:42:43.125Z,26.90
2022-08-20T08:43:34.028Z,29.20
2022-08-20T08:44:33.812Z,30.40
2022-08-20T08:46:20.487Z,30.30
2022-08-20T08:46:40.019Z,27.60
2022-08-20T08:48:48.935Z,27.80
2022-08-20T08:50:53.431Z,27.40
2022-08-20T08:50:54.257Z,29.30
2022-08-20T08:53:00.714Z,28.40
2022-08-20T08:54:36.120Z,31.00
2022-08-20T08:54:59.116Z,29.10
2022-08-20T08:56:50.420Z,29.70
2022-08-20T08:57:49.027Z,26.80
2022-08-20T08:59:24.986Z,27.90
2022-08-20T09:00:04.158Z,28.40
2022-08-20T09:01:54.542Z,26.90
2022-08-20T09:01:55.233Z,29.80
2022-08-20T09:03:35.886Z,27.70
2022-08-20T09:03:49.270Z,27.10
2022-08-20T09:05:58.210Z,23.90
2022-08-20T09:07:42.132Z,26.70
2022-08-20T09:07:57.892Z,27.40
2022-08-20T09:09:37.459Z,29.20
2022-08-20T09:09:55.804Z,26.70
2022-08-20T09:11:01.196Z,26.70
2022-08-20T09:11:54.895Z,27.40
2022-08-20T09:12:58.598Z,28.60
2022-08-20T09:13:59.381Z,27.90
2022-08-20T09:14:54.874Z,28.80
2022-08-20T09:16:01.118Z,29.90
2022-08-20T09:16:54.824Z,27.70
2022-08-20T09:17:56.002Z,27.90
2022-08-20T09:18:54.843Z,28.70
2022-08-20T09:19:55.066Z,28.30
2022-08-20T09:21:05.657Z,27.90
2022-08-20T09:21:54.740Z,27.00
2022-08-20T09:22:54.762Z,27.20
2022-08-20T09:23:54.785Z,26.20
2022-08-20T09:24:54.756Z,26.40
2022-08-20T09:26:01.758Z,25.70
2022-08-20T09:26:54.693Z,25.10
2022-08-20T09:27:54.702Z,25.50
2022-08-20T09:29:00.959Z,24.70
2022-08-20T09:29:54.649Z,24.10
2022-08-20T09:30:54.664Z,25.90
2022-08-20T09:32:00.925Z,25.60
2022-08-20T09:32:56.065Z,26.30
2022-08-20T09:33:55.577Z,25.60
2022-08-20T09:34:54.614Z,26.30
2022-08-20T09:35:54.550Z,25.40
2022-08-20T09:36:54.570Z,26.10
2022-08-20T09:38:01.115Z,25.50
2022-08-20T09:38:54.608Z,26.30
2022-08-20T09:39:55.361Z,27.80
2022-08-20T09:40:54.601Z,26.90
2022-08-20T09:41:54.495Z,27.10
2022-08-20T09:42:54.854Z,27.70
2022-08-20T09:44:02.087Z,27.90
2022-08-20T09:44:54.493Z,29.30
2022-08-20T09:45:54.472Z,27.70
2022-08-20T09:46:54.439Z,27.30
2022-08-20T09:47:56.677Z,28.30
2022-08-20T09:49:01.009Z,28.70
2022-08-20T09:49:54.889Z,27.20
2022-08-20T09:50:54.490Z,27.80
2022-08-20T09:51:54.415Z,26.80
2022-08-20T09:52:55.028Z,26.80
2022-08-20T09:54:00.737Z,26.20
2022-08-20T09:54:54.337Z,29.10
2022-08-20T09:55:54.657Z,26.20
2022-08-20T09:56:54.389Z,26.40
2022-08-20T09:57:54.367Z,26.90
2022-08-20T09:58:54.315Z,27.10
2022-08-20T10:00:00.570Z,25.30
2022-08-20T10:00:54.580Z,25.70
2022-08-20T10:01:54.318Z,25.50
2022-08-20T10:02:54.578Z,24.50
2022-08-20T10:03:55.182Z,24.60
2022-08-20T10:04:55.999Z,24.10
2022-08-20T10:06:00.839Z,24.40
2022-08-20T10:06:57.908Z,23.70
2022-08-20T10:07:54.172Z,23.30
2022-08-20T10:08:54.179Z,24.20
2022-08-20T10:09:54.199Z,23.90
2022-08-20T10:10:55.145Z,24.30
2022-08-20T10:12:00.488Z,23.50
2022-08-20T10:12:55.090Z,22.40
2022-08-20T10:13:57.178Z,22.70
2022-08-20T10:15:15.244Z,23.10
2022-08-20T10:15:54.553Z,22.10
2022-08-20T10:16:54.090Z,21.50
2022-08-20T10:18:37.553Z,22.20
2022-08-20T10:19:37.409Z,20.90
2022-08-20T10:20:37.054Z,21.60
2022-08-20T10:21:41.255Z,21.80
2022-08-20T10:22:37.044Z,22.00
2022-08-20T10:23:43.394Z,21.20
2022-08-20T10:24:37.054Z,21.70
2022-08-20T10:25:37.008Z,20.50
2022-08-20T10:26:41.206Z,20.30
2022-08-20T10:27:37.014Z,21.70
2022-08-20T10:28:43.306Z,20.50
2022-08-20T10:29:36.991Z,21.20
2022-08-20T10:30:37.014Z,20.90
2022-08-20T10:31:36.941Z,20.60
2022-08-20T10:32:36.935Z,20.30
2022-08-20T10:33:43.270Z,19.70
2022-08-20T10:34:36.909Z,19.10
2022-08-20T10:35:36.904Z,19.80
2022-08-20T10:36:36.897Z,19.60
2022-08-20T10:37:36.881Z,19.10
2022-08-20T10:38:43.369Z,19.90
2022-08-20T10:39:37.413Z,17.50
2022-08-20T10:40:36.854Z,17.10
2022-08-20T10:41:39.054Z,16.20
2022-08-20T10:42:41.960Z,16.60
2022-08-20T10:43:44.404Z,15.70
2022-08-20T10:44:37.134Z,15.40
2022-08-20T10:45:37.092Z,15.70
2022-08-20T10:46:36.757Z,15.50
2022-08-20T10:47:36.748Z,15.40
2022-08-20T10:48:43.123Z,15.40
2022-08-20T10:49:37.090Z,15.50
2022-08-20T10:50:36.752Z,14.50
2022-08-20T10:51:36.666Z,14.10
2022-08-20T10:52:41.123Z,13.90
2022-08-20T10:53:36.694Z,14.50
2022-08-20T10:54:43.316Z,13.70
2022-08-20T10:55:36.649Z,13.20
2022-08-20T10:56:36.956Z,13.40
2022-08-20T10:57:39.674Z,12.40
2022-08-20T10:58:39.255Z,12.50
2022-08-20T10:59:44.128Z,11.30
2022-08-20T11:00:36.584Z,12.40
2022-08-20T11:01:36.934Z,11.30
2022-08-20T11:02:36.571Z,10.50
2022-08-20T11:03:36.676Z,10.90
2022-08-20T11:04:36.560Z,10.20
2022-08-20T11:05:42.869Z,11.60
2022-08-20T11:06:36.497Z,11.20
2022-08-20T11:07:49.977Z,10.80
2022-08-20T11:08:42.262Z,11.20
2022-08-20T11:09:36.484Z,12.00
2022-08-20T11:10:38.555Z,11.30
2022-08-20T11:11:42.815Z,11.60
2022-08-20T11:12:36.469Z,11.50
2022-08-20T11:13:36.417Z,11.40
2022-08-20T11:14:36.554Z,12.10
2022-08-20T11:15:36.485Z,11.80
2022-08-20T11:16:36.390Z,10.90
2022-08-20T11:17:45.390Z,10.70
2022-08-20T11:18:40.962Z,11.60
2022-08-20T11:19:36.371Z,11.20
2022-08-20T11:20:36.319Z,11.20
2022-08-20T11:21:36.660Z,10.70
2022-08-20T11:22:43.220Z,10.90
2022-08-20T11:23:36.317Z,12.10
2022-08-20T11:24:36.333Z,10.60
2022-08-20T11:25:36.286Z,10.30
2022-08-20T11:26:36.277Z,10.70
2022-08-20T11:27:36.675Z,11.20
2022-08-20T11:28:42.579Z,12.20
2022-08-20T11:29:36.227Z,10.60
2022-08-20T11:30:36.261Z,9.00
2022-08-20T11:31:36.194Z,10.10
2022-08-20T11:32:38.876Z,9.50
2022-08-20T11:33:42.507Z,8.80
2022-08-20T11:34:36.261Z,9.10
2022-08-20T11:35:43.450Z,9.60
2022-08-20T11:36:37.776Z,9.10
2022-08-20T11:37:36.143Z,8.80
2022-08-20T11:38:42.430Z,8.70
2022-08-20T11:39:39.878Z,8.70
2022-08-20T11:40:37.571Z,9.00
2022-08-20T11:41:36.068Z,8.80
2022-08-20T11:43:18.602Z,8.70
2022-08-20T11:43:36.432Z,8.30
2022-08-20T11:46:11.184Z,6.10
2022-08-20T11:47:47.993Z,6.40
2022-08-20T11:48:06.190Z,7.00
2022-08-20T11:49:42.136Z,7.30
2022-08-20T11:50:08.124Z,6.90
2022-08-20T11:51:50.370Z,6.00
2022-08-20T11:52:04.782Z,5.60
2022-08-20T11:53:45.576Z,6.00
2022-08-20T11:54:19.036Z,5.90
2022-08-20T11:56:17.731Z,5.20
2022-08-20T11:57:56.622Z,5.60
2022-08-20T11:58:15.089Z,5.30
2022-08-20T11:59:30.545Z,5.00
2022-08-20T12:00:21.297Z,4.80
2022-08-20T12:01:32.880Z,5.00
2022-08-20T12:02:29.789Z,4.50
2022-08-20T12:03:19.805Z,5.30
2022-08-20T12:04:21.088Z,4.60
2022-08-20T12:05:19.851Z,4.60
2022-08-20T12:06:22.058Z,4.30
2022-08-20T12:07:27.094Z,4.60
2022-08-20T12:08:26.843Z,4.40
2022-08-20T12:09:23.037Z,4.40
2022-08-20T12:10:13.329Z,5.20
2022-08-20T12:11:11.759Z,4.70
2022-08-20T12:12:11.752Z,4.50
2022-08-20T12:13:18.036Z,5.10
2022-08-20T12:14:11.773Z,4.80
2022-08-20T12:15:11.741Z,5.00
2022-08-20T12:16:11.698Z,6.00
2022-08-20T12:17:11.683Z,6.60
2022-08-20T12:18:11.979Z,6.00
2022-08-20T12:19:18.046Z,6.50
2022-08-20T12:20:11.712Z,7.10
2022-08-20T12:21:11.649Z,6.40
2022-08-20T12:22:22.483Z,6.30
2022-08-20T12:23:13.088Z,6.70
2022-08-20T12:24:18.243Z,6.50
2022-08-20T12:25:11.609Z,7.10
2022-08-20T12:26:11.570Z,6.90
2022-08-20T12:27:11.543Z,7.10
2022-08-20T12:28:11.548Z,6.00
2022-08-20T12:29:11.576Z,6.70
2022-08-20T12:30:17.832Z,6.60
2022-08-20T12:31:11.487Z,5.90
2022-08-20T12:32:11.494Z,5.90
2022-08-20T12:33:11.491Z,5.80
2022-08-20T12:34:11.494Z,5.90
2022-08-20T12:35:17.903Z,5.90
2022-08-20T12:36:11.467Z,5.80
2022-08-20T12:37:15.767Z,5.50
2022-08-20T12:38:11.423Z,5.30
2022-08-20T12:39:11.456Z,5.70
2022-08-20T12:40:17.737Z,5.80
2022-08-20T12:41:12.907Z,6.20
2022-08-20T12:42:11.422Z,5.50
2022-08-20T12:43:11.355Z,6.10
2022-08-20T12:44:13.469Z,5.50
2022-08-20T12:45:11.389Z,5.80
2022-08-20T12:46:17.604Z,5.20
2022-08-20T12:47:11.346Z,5.30
2022-08-20T12:48:11.314Z,5.20
2022-08-20T12:49:11.321Z,5.40
2022-08-20T12:50:11.271Z,5.30
2022-08-20T12:51:17.569Z,5.30
2022-08-20T12:52:11.265Z,4.70
2022-08-20T12:53:11.251Z,5.10
2022-08-20T12:54:11.305Z,4.90
2022-08-20T12:55:11.188Z,5.10
2022-08-20T12:56:17.550Z,5.10
2022-08-20T12:57:11.728Z,4.90
2022-08-20T12:58:11.184Z,4.80
2022-08-20T12:59:11.162Z,5.30
2022-08-20T13:00:11.127Z,5.10
2022-08-20T13:01:17.540Z,5.70
2022-08-20T13:02:15.850Z,5.70
2022-08-20T13:03:12.591Z,5.40
2022-08-20T13:04:11.455Z,5.50
2022-08-20T13:05:11.147Z,4.70
2022-08-20T13:06:17.340Z,5.10
2022-08-20T13:07:11.570Z,5.30
2022-08-20T13:08:11.021Z,4.50
2022-08-20T13:09:11.132Z,4.30
2022-08-20T13:10:11.242Z,4.80
2022-08-20T13:11:11.943Z,4.60
2022-08-20T13:12:17.606Z,4.00
2022-08-20T13:13:11.270Z,4.80
2022-08-20T13:14:10.975Z,5.10
2022-08-20T13:15:10.958Z,4.20
2022-08-20T13:16:10.920Z,4.30
2022-08-20T13:17:10.889Z,4.20
2022-08-20T13:18:17.224Z,4.40
2022-08-20T13:19:10.894Z,4.90
2022-08-20T13:20:10.894Z,4.40
2022-08-20T13:21:10.869Z,4.60
2022-08-20T13:22:10.874Z,4.60
2022-08-20T13:23:17.126Z,5.40
2022-08-20T13:24:10.965Z,4.30
2022-08-20T13:25:10.804Z,4.80
2022-08-20T13:26:10.821Z,4.30
2022-08-20T13:27:10.781Z,4.70
2022-08-20T13:28:18.132Z,4.40
2022-08-20T13:29:10.810Z,4.50
2022-08-20T13:30:10.760Z,5.10